sensor_id;sensor_type;location;lat;lon;timestamp;P1;durP1;ratioP1;P2;durP2;ratioP2
18592;SDS011;9426;54.118;17.948;2023-09-12T00:04:42;36.17;;;26.57;;
18592;SDS011;9426;54.118;17.948;2023-09-12T00:10:06;37.80;;;28.30;;
18592;SDS011;9426;54.118;17.948;2023-09-12T00:15:30;40.33;;;29.00;;
18592;SDS011;9426;54.118;17.948;2023-09-12T00:20:54;39.73;;;28.07;;
18592;SDS011;9426;54.118;17.948;2023-09-12T00:26:20;39.27;;;29.97;;
18592;SDS011;9426;54.118;17.948;2023-09-12T00:31:44;40.17;;;28.70;;
18592;SDS011;9426;54.118;17.948;2023-09-12T00:37:09;38.23;;;28.33;;
18592;SDS011;9426;54.118;17.948;2023-09-12T00:42:33;34.77;;;26.07;;
18592;SDS011;9426;54.118;17.948;2023-09-12T00:47:57;35.60;;;25.20;;
18592;SDS011;9426;54.118;17.948;2023-09-12T00:53:22;32.87;;;25.93;;
18592;SDS011;9426;54.118;17.948;2023-09-12T00:58:46;34.77;;;26.17;;
18592;SDS011;9426;54.118;17.948;2023-09-12T01:04:12;30.70;;;24.67;;
18592;SDS011;9426;54.118;17.948;2023-09-12T01:09:45;33.13;;;24.53;;
18592;SDS011;9426;54.118;17.948;2023-09-12T01:15:09;33.90;;;24.30;;
18592;SDS011;9426;54.118;17.948;2023-09-12T01:20:35;31.00;;;22.97;;
18592;SDS011;9426;54.118;17.948;2023-09-12T01:26:15;30.43;;;22.80;;
18592;SDS011;9426;54.118;17.948;2023-09-12T01:31:42;30.87;;;24.50;;
18592;SDS011;9426;54.118;17.948;2023-09-12T01:37:06;32.40;;;25.47;;
18592;SDS011;9426;54.118;17.948;2023-09-12T01:42:31;32.87;;;25.00;;
18592;SDS011;9426;54.118;17.948;2023-09-12T01:48:00;32.27;;;24.40;;
18592;SDS011;9426;54.118;17.948;2023-09-12T01:53:23;33.77;;;26.27;;
18592;SDS011;9426;54.118;17.948;2023-09-12T01:58:48;29.80;;;24.87;;
18592;SDS011;9426;54.118;17.948;2023-09-12T02:04:13;35.37;;;25.63;;
18592;SDS011;9426;54.118;17.948;2023-09-12T02:09:36;34.83;;;25.47;;
18592;SDS011;9426;54.118;17.948;2023-09-12T02:15:00;37.47;;;26.03;;
18592;SDS011;9426;54.118;17.948;2023-09-12T02:20:25;36.80;;;26.37;;
18592;SDS011;9426;54.118;17.948;2023-09-12T02:25:49;31.30;;;24.63;;
18592;SDS011;9426;54.118;17.948;2023-09-12T02:31:12;35.30;;;26.60;;
18592;SDS011;9426;54.118;17.948;2023-09-12T02:36:37;33.53;;;26.20;;
18592;SDS011;9426;54.118;17.948;2023-09-12T02:42:01;39.03;;;27.97;;
18592;SDS011;9426;54.118;17.948;2023-09-12T02:47:24;37.97;;;30.00;;
18592;SDS011;9426;54.118;17.948;2023-09-12T02:52:49;37.27;;;28.13;;
18592;SDS011;9426;54.118;17.948;2023-09-12T02:58:13;37.30;;;28.50;;
18592;SDS011;9426;54.118;17.948;2023-09-12T03:03:36;36.87;;;28.40;;
18592;SDS011;9426;54.118;17.948;2023-09-12T03:09:01;38.10;;;28.40;;
18592;SDS011;9426;54.118;17.948;2023-09-12T03:14:27;36.00;;;27.40;;
18592;SDS011;9426;54.118;17.948;2023-09-12T03:19:51;36.27;;;27.93;;
18592;SDS011;9426;54.118;17.948;2023-09-12T03:25:16;38.80;;;28.23;;
18592;SDS011;9426;54.118;17.948;2023-09-12T03:30:40;35.07;;;27.27;;
18592;SDS011;9426;54.118;17.948;2023-09-12T03:36:04;43.00;;;27.97;;
18592;SDS011;9426;54.118;17.948;2023-09-12T03:41:29;43.10;;;31.03;;
18592;SDS011;9426;54.118;17.948;2023-09-12T03:46:53;45.20;;;31.43;;
18592;SDS011;9426;54.118;17.948;2023-09-12T03:52:17;46.50;;;34.63;;
18592;SDS011;9426;54.118;17.948;2023-09-12T03:57:42;49.20;;;34.47;;
18592;SDS011;9426;54.118;17.948;2023-09-12T04:03:06;46.40;;;33.33;;
18592;SDS011;9426;54.118;17.948;2023-09-12T04:08:30;44.13;;;31.43;;
18592;SDS011;9426;54.118;17.948;2023-09-12T04:13:55;49.93;;;35.13;;
18592;SDS011;9426;54.118;17.948;2023-09-12T04:19:19;46.10;;;34.43;;
18592;SDS011;9426;54.118;17.948;2023-09-12T04:24:43;45.27;;;33.27;;
18592;SDS011;9426;54.118;17.948;2023-09-12T04:30:11;53.27;;;36.50;;
18592;SDS011;9426;54.118;17.948;2023-09-12T04:35:35;50.20;;;35.57;;
18592;SDS011;9426;54.118;17.948;2023-09-12T04:41:00;53.73;;;34.90;;
18592;SDS011;9426;54.118;17.948;2023-09-12T04:46:27;50.33;;;35.23;;
18592;SDS011;9426;54.118;17.948;2023-09-12T04:51:51;46.60;;;34.23;;
18592;SDS011;9426;54.118;17.948;2023-09-12T04:57:14;66.53;;;34.80;;
18592;SDS011;9426;54.118;17.948;2023-09-12T05:02:40;46.10;;;30.83;;
18592;SDS011;9426;54.118;17.948;2023-09-12T05:08:05;46.73;;;34.07;;
18592;SDS011;9426;54.118;17.948;2023-09-12T05:13:29;48.43;;;34.00;;
18592;SDS011;9426;54.118;17.948;2023-09-12T05:18:55;45.40;;;33.03;;
18592;SDS011;9426;54.118;17.948;2023-09-12T05:24:19;40.07;;;29.83;;
18592;SDS011;9426;54.118;17.948;2023-09-12T05:29:42;46.60;;;31.67;;
18592;SDS011;9426;54.118;17.948;2023-09-12T05:35:08;49.63;;;30.47;;
18592;SDS011;9426;54.118;17.948;2023-09-12T05:40:40;42.57;;;31.67;;
18592;SDS011;9426;54.118;17.948;2023-09-12T05:46:03;41.43;;;29.87;;
18592;SDS011;9426;54.118;17.948;2023-09-12T05:51:29;40.47;;;29.63;;
18592;SDS011;9426;54.118;17.948;2023-09-12T05:56:52;38.57;;;28.70;;
18592;SDS011;9426;54.118;17.948;2023-09-12T06:02:16;39.83;;;30.50;;
18592;SDS011;9426;54.118;17.948;2023-09-12T06:07:41;39.70;;;30.20;;
18592;SDS011;9426;54.118;17.948;2023-09-12T06:13:05;41.23;;;30.53;;
18592;SDS011;9426;54.118;17.948;2023-09-12T06:18:30;36.53;;;28.17;;
18592;SDS011;9426;54.118;17.948;2023-09-12T06:24:09;34.00;;;25.73;;
18592;SDS011;9426;54.118;17.948;2023-09-12T06:29:33;32.57;;;24.67;;
18592;SDS011;9426;54.118;17.948;2023-09-12T06:34:57;37.07;;;22.27;;
18592;SDS011;9426;54.118;17.948;2023-09-12T06:40:22;26.23;;;20.10;;
18592;SDS011;9426;54.118;17.948;2023-09-12T06:45:47;24.80;;;18.97;;
18592;SDS011;9426;54.118;17.948;2023-09-12T06:51:12;21.40;;;16.30;;
18592;SDS011;9426;54.118;17.948;2023-09-12T06:56:39;22.23;;;13.30;;
18592;SDS011;9426;54.118;17.948;2023-09-12T07:02:04;19.37;;;12.73;;
18592;SDS011;9426;54.118;17.948;2023-09-12T07:07:32;21.17;;;13.33;;
18592;SDS011;9426;54.118;17.948;2023-09-12T07:13:00;16.47;;;12.70;;
18592;SDS011;9426;54.118;17.948;2023-09-12T07:18:23;18.67;;;13.03;;
18592;SDS011;9426;54.118;17.948;2023-09-12T07:23:47;20.35;;;12.68;;
18592;SDS011;9426;54.118;17.948;2023-09-12T07:29:12;19.58;;;11.43;;
18592;SDS011;9426;54.118;17.948;2023-09-12T07:34:36;23.25;;;12.05;;
18592;SDS011;9426;54.118;17.948;2023-09-12T07:40:00;30.83;;;12.70;;
18592;SDS011;9426;54.118;17.948;2023-09-12T07:45:29;21.48;;;12.48;;
18592;SDS011;9426;54.118;17.948;2023-09-12T07:50:53;16.53;;;12.43;;
18592;SDS011;9426;54.118;17.948;2023-09-12T07:56:17;29.75;;;12.05;;
18592;SDS011;9426;54.118;17.948;2023-09-12T08:01:42;22.20;;;11.82;;
18592;SDS011;9426;54.118;17.948;2023-09-12T08:07:05;18.27;;;11.25;;
18592;SDS011;9426;54.118;17.948;2023-09-12T08:12:29;15.60;;;10.38;;
18592;SDS011;9426;54.118;17.948;2023-09-12T08:17:53;13.38;;;10.60;;
18592;SDS011;9426;54.118;17.948;2023-09-12T08:23:17;17.85;;;10.68;;
18592;SDS011;9426;54.118;17.948;2023-09-12T08:28:41;15.30;;;10.65;;
18592;SDS011;9426;54.118;17.948;2023-09-12T08:34:06;20.83;;;9.90;;
18592;SDS011;9426;54.118;17.948;2023-09-12T08:39:40;17.02;;;10.02;;
18592;SDS011;9426;54.118;17.948;2023-09-12T08:45:04;21.15;;;10.98;;
18592;SDS011;9426;54.118;17.948;2023-09-12T08:50:30;21.92;;;9.98;;
18592;SDS011;9426;54.118;17.948;2023-09-12T09:01:44;16.60;;;9.82;;
18592;SDS011;9426;54.118;17.948;2023-09-12T09:07:10;10.30;;;8.43;;
18592;SDS011;9426;54.118;17.948;2023-09-12T09:12:34;13.48;;;8.55;;
18592;SDS011;9426;54.118;17.948;2023-09-12T09:17:58;16.15;;;8.70;;
18592;SDS011;9426;54.118;17.948;2023-09-12T09:23:28;15.68;;;8.30;;
18592;SDS011;9426;54.118;17.948;2023-09-12T09:29:05;11.73;;;7.90;;
18592;SDS011;9426;54.118;17.948;2023-09-12T09:34:29;10.40;;;7.75;;
18592;SDS011;9426;54.118;17.948;2023-09-12T09:39:55;24.00;;;8.57;;
18592;SDS011;9426;54.118;17.948;2023-09-12T09:45:19;12.88;;;7.80;;
18592;SDS011;9426;54.118;17.948;2023-09-12T09:50:42;13.05;;;7.30;;
18592;SDS011;9426;54.118;17.948;2023-09-12T09:56:11;11.13;;;6.75;;
18592;SDS011;9426;54.118;17.948;2023-09-12T10:01:35;10.82;;;7.15;;
18592;SDS011;9426;54.118;17.948;2023-09-12T10:06:59;9.32;;;6.63;;
18592;SDS011;9426;54.118;17.948;2023-09-12T10:12:25;9.88;;;6.03;;
18592;SDS011;9426;54.118;17.948;2023-09-12T10:17:54;21.38;;;6.30;;
18592;SDS011;9426;54.118;17.948;2023-09-12T10:23:21;9.55;;;6.22;;
18592;SDS011;9426;54.118;17.948;2023-09-12T10:28:54;18.30;;;6.05;;
18592;SDS011;9426;54.118;17.948;2023-09-12T10:34:17;15.05;;;6.03;;
18592;SDS011;9426;54.118;17.948;2023-09-12T10:39:43;8.88;;;6.10;;
18592;SDS011;9426;54.118;17.948;2023-09-12T10:45:08;17.42;;;6.65;;
18592;SDS011;9426;54.118;17.948;2023-09-12T10:50:32;15.75;;;6.97;;
18592;SDS011;9426;54.118;17.948;2023-09-12T10:56:00;15.30;;;7.18;;
18592;SDS011;9426;54.118;17.948;2023-09-12T11:01:39;10.35;;;6.22;;
18592;SDS011;9426;54.118;17.948;2023-09-12T11:12:53;14.23;;;6.32;;
18592;SDS011;9426;54.118;17.948;2023-09-12T11:18:20;10.55;;;5.65;;
18592;SDS011;9426;54.118;17.948;2023-09-12T11:23:43;13.38;;;6.38;;
18592;SDS011;9426;54.118;17.948;2023-09-12T11:29:16;9.27;;;5.57;;
18592;SDS011;9426;54.118;17.948;2023-09-12T11:34:42;10.95;;;6.28;;
18592;SDS011;9426;54.118;17.948;2023-09-12T11:40:15;17.58;;;6.22;;
18592;SDS011;9426;54.118;17.948;2023-09-12T11:45:42;12.60;;;6.13;;
18592;SDS011;9426;54.118;17.948;2023-09-12T11:51:08;10.20;;;6.13;;
18592;SDS011;9426;54.118;17.948;2023-09-12T11:56:31;10.38;;;5.40;;
18592;SDS011;9426;54.118;17.948;2023-09-12T12:01:57;15.88;;;5.80;;
18592;SDS011;9426;54.118;17.948;2023-09-12T12:07:22;10.18;;;5.55;;
18592;SDS011;9426;54.118;17.948;2023-09-12T12:12:46;6.85;;;5.28;;
18592;SDS011;9426;54.118;17.948;2023-09-12T12:18:10;6.95;;;5.55;;
18592;SDS011;9426;54.118;17.948;2023-09-12T12:23:35;16.30;;;5.80;;
18592;SDS011;9426;54.118;17.948;2023-09-12T12:28:59;11.38;;;6.38;;
18592;SDS011;9426;54.118;17.948;2023-09-12T12:34:23;9.93;;;5.78;;
18592;SDS011;9426;54.118;17.948;2023-09-12T12:39:48;8.68;;;5.82;;
18592;SDS011;9426;54.118;17.948;2023-09-12T12:45:14;17.08;;;6.63;;
18592;SDS011;9426;54.118;17.948;2023-09-12T12:50:39;8.70;;;5.75;;
18592;SDS011;9426;54.118;17.948;2023-09-12T12:56:05;11.15;;;5.43;;
18592;SDS011;9426;54.118;17.948;2023-09-12T13:01:29;10.60;;;5.72;;
18592;SDS011;9426;54.118;17.948;2023-09-12T13:06:53;14.52;;;5.90;;
18592;SDS011;9426;54.118;17.948;2023-09-12T13:12:18;13.38;;;6.00;;
18592;SDS011;9426;54.118;17.948;2023-09-12T13:17:41;12.23;;;6.07;;
18592;SDS011;9426;54.118;17.948;2023-09-12T13:23:05;9.40;;;5.32;;
18592;SDS011;9426;54.118;17.948;2023-09-12T13:28:30;13.40;;;5.50;;
18592;SDS011;9426;54.118;17.948;2023-09-12T13:33:53;8.93;;;5.80;;
18592;SDS011;9426;54.118;17.948;2023-09-12T13:39:17;6.95;;;5.72;;
18592;SDS011;9426;54.118;17.948;2023-09-12T13:44:42;7.13;;;5.88;;
18592;SDS011;9426;54.118;17.948;2023-09-12T13:50:05;9.38;;;6.05;;
18592;SDS011;9426;54.118;17.948;2023-09-12T13:55:29;25.17;;;7.60;;
18592;SDS011;9426;54.118;17.948;2023-09-12T14:00:54;10.40;;;5.35;;
18592;SDS011;9426;54.118;17.948;2023-09-12T14:06:18;7.38;;;5.65;;
18592;SDS011;9426;54.118;17.948;2023-09-12T14:11:41;26.63;;;6.63;;
18592;SDS011;9426;54.118;17.948;2023-09-12T14:17:10;6.85;;;5.72;;
18592;SDS011;9426;54.118;17.948;2023-09-12T14:22:33;6.28;;;5.28;;
18592;SDS011;9426;54.118;17.948;2023-09-12T14:27:58;11.68;;;5.45;;
18592;SDS011;9426;54.118;17.948;2023-09-12T14:33:23;7.35;;;5.68;;
18592;SDS011;9426;54.118;17.948;2023-09-12T14:38:46;11.43;;;6.70;;
18592;SDS011;9426;54.118;17.948;2023-09-12T14:44:10;14.10;;;5.88;;
18592;SDS011;9426;54.118;17.948;2023-09-12T14:49:35;10.70;;;5.95;;
18592;SDS011;9426;54.118;17.948;2023-09-12T14:55:05;8.00;;;5.90;;
18592;SDS011;9426;54.118;17.948;2023-09-12T15:00:30;8.05;;;5.65;;
18592;SDS011;9426;54.118;17.948;2023-09-12T15:05:57;9.43;;;5.78;;
18592;SDS011;9426;54.118;17.948;2023-09-12T15:11:21;6.72;;;5.63;;
18592;SDS011;9426;54.118;17.948;2023-09-12T15:16:44;6.95;;;5.93;;
18592;SDS011;9426;54.118;17.948;2023-09-12T15:22:10;8.52;;;5.93;;
18592;SDS011;9426;54.118;17.948;2023-09-12T15:27:38;6.82;;;5.97;;
18592;SDS011;9426;54.118;17.948;2023-09-12T15:33:02;11.77;;;5.97;;
18592;SDS011;9426;54.118;17.948;2023-09-12T15:38:28;8.40;;;6.15;;
18592;SDS011;9426;54.118;17.948;2023-09-12T15:43:51;19.33;;;6.95;;
18592;SDS011;9426;54.118;17.948;2023-09-12T15:49:28;8.57;;;5.85;;
18592;SDS011;9426;54.118;17.948;2023-09-12T15:54:54;11.52;;;6.13;;
18592;SDS011;9426;54.118;17.948;2023-09-12T16:00:17;7.70;;;6.05;;
18592;SDS011;9426;54.118;17.948;2023-09-12T16:05:41;17.88;;;6.78;;
18592;SDS011;9426;54.118;17.948;2023-09-12T16:11:07;9.48;;;5.88;;
18592;SDS011;9426;54.118;17.948;2023-09-12T16:16:30;41.55;;;9.20;;
18592;SDS011;9426;54.118;17.948;2023-09-12T16:21:53;19.60;;;7.75;;
18592;SDS011;9426;54.118;17.948;2023-09-12T16:27:23;13.40;;;6.60;;
18592;SDS011;9426;54.118;17.948;2023-09-12T16:32:48;17.95;;;7.22;;
18592;SDS011;9426;54.118;17.948;2023-09-12T16:38:12;10.88;;;7.00;;
18592;SDS011;9426;54.118;17.948;2023-09-12T16:43:37;15.02;;;7.97;;
18592;SDS011;9426;54.118;17.948;2023-09-12T16:49:02;13.88;;;7.55;;
18592;SDS011;9426;54.118;17.948;2023-09-12T16:54:26;13.52;;;7.60;;
18592;SDS011;9426;54.118;17.948;2023-09-12T16:59:51;14.30;;;7.90;;
18592;SDS011;9426;54.118;17.948;2023-09-12T17:05:14;14.85;;;7.70;;
18592;SDS011;9426;54.118;17.948;2023-09-12T17:10:38;20.83;;;8.02;;
18592;SDS011;9426;54.118;17.948;2023-09-12T17:16:03;25.33;;;8.10;;
18592;SDS011;9426;54.118;17.948;2023-09-12T17:21:27;9.90;;;7.20;;
18592;SDS011;9426;54.118;17.948;2023-09-12T17:26:50;11.93;;;7.88;;
18592;SDS011;9426;54.118;17.948;2023-09-12T17:32:16;17.05;;;8.02;;
18592;SDS011;9426;54.118;17.948;2023-09-12T17:37:40;51.92;;;11.45;;
18592;SDS011;9426;54.118;17.948;2023-09-12T17:43:03;14.70;;;8.35;;
18592;SDS011;9426;54.118;17.948;2023-09-12T17:48:28;10.60;;;7.80;;
18592;SDS011;9426;54.118;17.948;2023-09-12T17:53:51;13.35;;;8.07;;
18592;SDS011;9426;54.118;17.948;2023-09-12T17:59:14;20.33;;;8.02;;
18592;SDS011;9426;54.118;17.948;2023-09-12T18:04:39;16.02;;;8.93;;
18592;SDS011;9426;54.118;17.948;2023-09-12T18:10:03;17.52;;;8.40;;
18592;SDS011;9426;54.118;17.948;2023-09-12T18:15:28;10.77;;;8.60;;
18592;SDS011;9426;54.118;17.948;2023-09-12T18:20:53;17.58;;;9.07;;
18592;SDS011;9426;54.118;17.948;2023-09-12T18:26:17;13.93;;;9.18;;
18592;SDS011;9426;54.118;17.948;2023-09-12T18:31:44;12.90;;;8.63;;
18592;SDS011;9426;54.118;17.948;2023-09-12T18:37:09;11.30;;;8.95;;
18592;SDS011;9426;54.118;17.948;2023-09-12T18:42:33;13.43;;;8.70;;
18592;SDS011;9426;54.118;17.948;2023-09-12T18:47:57;11.40;;;8.45;;
18592;SDS011;9426;54.118;17.948;2023-09-12T18:53:22;12.80;;;9.07;;
18592;SDS011;9426;54.118;17.948;2023-09-12T18:58:46;13.32;;;8.57;;
18592;SDS011;9426;54.118;17.948;2023-09-12T19:04:20;16.27;;;8.65;;
18592;SDS011;9426;54.118;17.948;2023-09-12T19:09:46;13.77;;;8.70;;
18592;SDS011;9426;54.118;17.948;2023-09-12T19:15:09;16.53;;;9.50;;
18592;SDS011;9426;54.118;17.948;2023-09-12T19:20:33;19.83;;;10.07;;
18592;SDS011;9426;54.118;17.948;2023-09-12T19:25:58;19.27;;;9.10;;
18592;SDS011;9426;54.118;17.948;2023-09-12T19:31:21;20.00;;;10.55;;
18592;SDS011;9426;54.118;17.948;2023-09-12T19:36:45;17.38;;;9.43;;
18592;SDS011;9426;54.118;17.948;2023-09-12T19:42:09;16.63;;;10.40;;
18592;SDS011;9426;54.118;17.948;2023-09-12T19:47:33;17.67;;;10.57;;
18592;SDS011;9426;54.118;17.948;2023-09-12T19:53:02;22.95;;;11.63;;
18592;SDS011;9426;54.118;17.948;2023-09-12T19:58:28;19.63;;;11.50;;
18592;SDS011;9426;54.118;17.948;2023-09-12T20:03:52;28.20;;;12.30;;
18592;SDS011;9426;54.118;17.948;2023-09-12T20:09:15;26.73;;;13.07;;
18592;SDS011;9426;54.118;17.948;2023-09-12T20:14:41;24.90;;;12.17;;
18592;SDS011;9426;54.118;17.948;2023-09-12T20:20:05;23.60;;;12.50;;
18592;SDS011;9426;54.118;17.948;2023-09-12T20:25:32;23.92;;;12.00;;
18592;SDS011;9426;54.118;17.948;2023-09-12T20:30:57;30.57;;;12.97;;
18592;SDS011;9426;54.118;17.948;2023-09-12T20:36:21;23.80;;;13.70;;
18592;SDS011;9426;54.118;17.948;2023-09-12T20:41:46;29.37;;;13.53;;
18592;SDS011;9426;54.118;17.948;2023-09-12T20:47:11;20.43;;;12.97;;
18592;SDS011;9426;54.118;17.948;2023-09-12T20:52:36;26.93;;;13.30;;
18592;SDS011;9426;54.118;17.948;2023-09-12T20:58:00;23.90;;;13.73;;
18592;SDS011;9426;54.118;17.948;2023-09-12T21:03:26;23.53;;;13.07;;
18592;SDS011;9426;54.118;17.948;2023-09-12T21:08:50;22.47;;;13.23;;
18592;SDS011;9426;54.118;17.948;2023-09-12T21:14:16;29.77;;;13.70;;
18592;SDS011;9426;54.118;17.948;2023-09-12T21:19:40;31.53;;;13.37;;
18592;SDS011;9426;54.118;17.948;2023-09-12T21:25:04;29.37;;;14.37;;
18592;SDS011;9426;54.118;17.948;2023-09-12T21:30:29;29.43;;;14.67;;
18592;SDS011;9426;54.118;17.948;2023-09-12T21:35:54;28.90;;;14.53;;
18592;SDS011;9426;54.118;17.948;2023-09-12T21:41:17;29.23;;;14.33;;
18592;SDS011;9426;54.118;17.948;2023-09-12T21:46:42;22.80;;;14.20;;
18592;SDS011;9426;54.118;17.948;2023-09-12T21:52:09;33.33;;;14.10;;
18592;SDS011;9426;54.118;17.948;2023-09-12T21:57:33;26.87;;;13.77;;
18592;SDS011;9426;54.118;17.948;2023-09-12T22:02:57;21.00;;;13.30;;
18592;SDS011;9426;54.118;17.948;2023-09-12T22:08:22;26.17;;;14.93;;
18592;SDS011;9426;54.118;17.948;2023-09-12T22:13:46;30.93;;;15.83;;
18592;SDS011;9426;54.118;17.948;2023-09-12T22:19:09;24.63;;;14.90;;
18592;SDS011;9426;54.118;17.948;2023-09-12T22:24:34;23.33;;;14.97;;
18592;SDS011;9426;54.118;17.948;2023-09-12T22:29:58;34.27;;;16.40;;
18592;SDS011;9426;54.118;17.948;2023-09-12T22:35:22;23.60;;;15.47;;
18592;SDS011;9426;54.118;17.948;2023-09-12T22:40:47;28.53;;;16.17;;
18592;SDS011;9426;54.118;17.948;2023-09-12T22:46:12;26.33;;;17.00;;
18592;SDS011;9426;54.118;17.948;2023-09-12T22:51:35;39.63;;;19.53;;
18592;SDS011;9426;54.118;17.948;2023-09-12T22:57:00;32.97;;;19.20;;
18592;SDS011;9426;54.118;17.948;2023-09-12T23:02:24;33.80;;;20.53;;
18592;SDS011;9426;54.118;17.948;2023-09-12T23:07:47;44.40;;;22.33;;
18592;SDS011;9426;54.118;17.948;2023-09-12T23:13:12;33.87;;;20.87;;
18592;SDS011;9426;54.118;17.948;2023-09-12T23:18:36;43.23;;;22.80;;
18592;SDS011;9426;54.118;17.948;2023-09-12T23:23:59;32.90;;;19.33;;
18592;SDS011;9426;54.118;17.948;2023-09-12T23:29:25;32.50;;;19.90;;
18592;SDS011;9426;54.118;17.948;2023-09-12T23:34:48;28.53;;;17.43;;
18592;SDS011;9426;54.118;17.948;2023-09-12T23:40:11;36.27;;;21.73;;
18592;SDS011;9426;54.118;17.948;2023-09-12T23:45:37;43.33;;;24.63;;
18592;SDS011;9426;54.118;17.948;2023-09-12T23:51:01;40.00;;;23.30;;
18592;SDS011;9426;54.118;17.948;2023-09-12T23:56:25;35.30;;;21.80;;
